Time;durP1;ratioP1;P1;durP2;ratioP2;P2;SDS_P1;SDS_P2;PMS_P1;PMS_P2;Temp;Humidity;BMP_temperature;BMP_pressure;BME280_temperature;BME280_humidity;BME280_pressure;Samples;Min_cycle;Max_cycle;Signal;HPM_P1;HPM_P2
2022/09/13 00:00:26;;;;;;;;;;;18.50;70.90;;;;;;5031634;28;20388;-74
2022/09/13 00:02:51;;;;;;;;;;;18.50;71.60;;;;;;5044496;28;19920;-75
2022/09/13 00:05:17;;;;;;;;;;;18.50;70.60;;;;;;5043026;28;20769;-74
2022/09/13 00:07:42;;;;;;;;;;;18.40;70.70;;;;;;5045535;28;20027;-75
2022/09/13 00:10:08;;;;;;;;;;;18.40;71.00;;;;;;5048105;28;19913;-74
2022/09/13 00:12:34;;;;;;;;;;;18.50;71.10;;;;;;5048660;28;19928;-74
2022/09/13 00:14:59;;;;;;;;;;;18.40;71.00;;;;;;5044238;28;19913;-73
2022/09/13 00:17:25;;;;;;;;;;;18.40;71.30;;;;;;5045790;28;19912;-75
2022/09/13 00:19:51;;;;;;;;;;;18.40;71.80;;;;;;5041189;28;20010;-74
2022/09/13 00:22:16;;;;;;;;;;;18.40;71.60;;;;;;5045688;28;20435;-74
2022/09/13 00:24:41;;;;;;;;;;;18.40;72.00;;;;;;5045619;28;19928;-74
2022/09/13 00:27:07;;;;;;;;;;;18.30;72.30;;;;;;5045871;28;19912;-74
2022/09/13 00:29:32;;;;;;;;;;;18.30;72.10;;;;;;5044950;28;20385;-74
2022/09/13 00:31:58;;;;;;;;;;;18.30;72.70;;;;;;5048326;28;19996;-74
2022/09/13 00:34:23;;;;;;;;;;;18.30;72.40;;;;;;5047236;28;19913;-73
2022/09/13 00:36:49;;;;;;;;;;;18.30;71.90;;;;;;5045239;28;20776;-74
2022/09/13 00:39:14;;;;;;;;;;;18.30;71.40;;;;;;5046149;28;20362;-74
2022/09/13 00:41:40;;;;;;;;;;;18.50;71.20;;;;;;5049167;28;19923;-73
2022/09/13 00:44:25;;;;;;;;;;;18.50;71.50;;;;;;5041137;28;19913;-75
2022/09/13 00:46:51;;;;;;;;;;;18.50;70.60;;;;;;5048522;28;19928;-75
2022/09/13 00:49:22;;;;;;;;;;;18.60;70.30;;;;;;5038979;28;19917;-74
2022/09/13 00:51:51;;;;;;;;;;;18.70;69.30;;;;;;5042819;28;20019;-75
2022/09/13 00:54:18;;;;;;;;;;;18.80;69.10;;;;;;5042668;28;19920;-75
2022/09/13 00:56:46;;;;;;;;;;;18.80;69.10;;;;;;5043366;28;19917;-75
2022/09/13 00:59:14;;;;;;;;;;;18.80;69.10;;;;;;5039979;28;19917;-74
2022/09/13 01:01:45;;;;;;;;;;;18.90;68.60;;;;;;5037124;28;20362;-74
2022/09/13 01:04:11;;;;;;;;;;;18.90;68.30;;;;;;5043743;28;19917;-74
2022/09/13 01:06:37;;;;;;;;;;;18.90;68.50;;;;;;5040369;28;19974;-74
2022/09/13 01:09:04;;;;;;;;;;;18.90;68.40;;;;;;5036177;28;20007;-74
2022/09/13 01:11:59;;;;;;;;;;;18.90;68.00;;;;;;5045119;28;20439;-73
2022/09/13 01:14:26;;;;;;;;;;;18.90;68.90;;;;;;5044101;28;19955;-74
2022/09/13 01:16:51;;;;;;;;;;;18.80;69.30;;;;;;5041259;28;21280;-74
2022/09/13 01:19:17;;;;;;;;;;;18.80;69.00;;;;;;5045016;28;20401;-75
2022/09/13 01:22:01;;;;;;;;;;;18.80;69.20;;;;;;5045011;28;19913;-74
2022/09/13 01:24:36;;;;;;;;;;;18.80;69.80;;;;;;5044009;28;19917;-74
2022/09/13 01:27:02;;;;;;;;;;;18.70;70.10;;;;;;5046908;28;20428;-74
2022/09/13 01:29:46;;;;;;;;;;;18.60;70.40;;;;;;5038772;28;20016;-74
2022/09/13 01:32:20;;;;;;;;;;;18.50;70.70;;;;;;5037811;28;19913;-74
2022/09/13 01:35:06;;;;;;;;;;;18.50;70.70;;;;;;5047280;28;20530;-74
2022/09/13 01:37:38;;;;;;;;;;;18.40;71.20;;;;;;5046425;28;19913;-74
2022/09/13 01:40:15;;;;;;;;;;;18.40;71.40;;;;;;5034182;28;19982;-75
2022/09/13 01:42:47;;;;;;;;;;;18.30;71.90;;;;;;5047519;28;19917;-74
2022/09/13 01:45:45;;;;;;;;;;;18.30;71.80;;;;;;5046005;28;19996;-75
2022/09/13 01:48:19;;;;;;;;;;;18.30;72.50;;;;;;5020921;28;19932;-74
2022/09/13 01:50:49;;;;;;;;;;;18.20;72.50;;;;;;5038015;28;19966;-75
2022/09/13 01:53:14;;;;;;;;;;;18.10;72.50;;;;;;5048327;28;19921;-74
2022/09/13 01:55:52;;;;;;;;;;;18.20;72.30;;;;;;5043187;28;19939;-74
2022/09/13 01:58:30;;;;;;;;;;;18.20;71.80;;;;;;5041107;28;20342;-74
2022/09/13 02:01:03;;;;;;;;;;;18.20;71.80;;;;;;5040826;28;19916;-74
2022/09/13 02:03:33;;;;;;;;;;;18.10;72.30;;;;;;5039699;28;19913;-75
2022/09/13 02:06:01;;;;;;;;;;;18.20;72.30;;;;;;5040496;28;20003;-75
2022/09/13 02:08:47;;;;;;;;;;;18.20;72.20;;;;;;5032941;28;19925;-74
2022/09/13 02:11:13;;;;;;;;;;;18.20;72.30;;;;;;5032196;28;19913;-75
2022/09/13 02:13:46;;;;;;;;;;;18.30;71.60;;;;;;5038435;28;19912;-75
2022/09/13 02:16:15;;;;;;;;;;;18.30;71.50;;;;;;5043066;28;19917;-75
2022/09/13 02:18:42;;;;;;;;;;;18.30;71.50;;;;;;5033371;28;19921;-74
2022/09/13 02:21:22;;;;;;;;;;;18.30;70.90;;;;;;5039378;28;20271;-74
2022/09/13 02:23:59;;;;;;;;;;;18.30;71.50;;;;;;5044165;28;19917;-75
2022/09/13 02:26:26;;;;;;;;;;;18.50;70.70;;;;;;5043764;28;19913;-74
2022/09/13 02:28:53;;;;;;;;;;;18.40;70.60;;;;;;5039559;28;19943;-75
2022/09/13 02:31:25;;;;;;;;;;;18.40;70.60;;;;;;5041492;28;19913;-75
2022/09/13 02:33:52;;;;;;;;;;;18.40;70.90;;;;;;5038343;28;19916;-74
2022/09/13 02:36:21;;;;;;;;;;;18.50;70.40;;;;;;5048369;28;19920;-74
2022/09/13 02:38:55;;;;;;;;;;;18.40;70.60;;;;;;5037475;28;19923;-74
2022/09/13 02:41:29;;;;;;;;;;;18.50;70.50;;;;;;5044339;28;19916;-74
2022/09/13 02:43:58;;;;;;;;;;;18.50;70.70;;;;;;5045571;28;19955;-74
2022/09/13 02:46:30;;;;;;;;;;;18.50;70.70;;;;;;5043086;28;20320;-75
2022/09/13 02:48:58;;;;;;;;;;;18.50;70.70;;;;;;5051855;28;19928;-74
2022/09/13 02:51:47;;;;;;;;;;;18.50;70.20;;;;;;5050434;28;19920;-74
2022/09/13 02:54:19;;;;;;;;;;;18.50;70.40;;;;;;5031760;28;19917;-75
2022/09/13 02:57:11;;;;;;;;;;;18.50;69.90;;;;;;5046470;28;19913;-75
2022/09/13 02:59:36;;;;;;;;;;;18.60;70.20;;;;;;5044424;28;19947;-75
2022/09/13 03:02:20;;;;;;;;;;;18.60;69.30;;;;;;5040173;28;20436;-75
2022/09/13 03:04:49;;;;;;;;;;;18.60;69.90;;;;;;5045350;28;20404;-74
2022/09/13 03:07:14;;;;;;;;;;;18.70;69.20;;;;;;5049814;28;20011;-75
2022/09/13 03:09:44;;;;;;;;;;;18.80;68.70;;;;;;5048932;28;19917;-75
2022/09/13 03:12:21;;;;;;;;;;;18.80;68.70;;;;;;5051345;28;19982;-75
2022/09/13 03:15:05;;;;;;;;;;;18.90;68.30;;;;;;5046840;28;19927;-75
2022/09/13 03:17:57;;;;;;;;;;;19.00;68.00;;;;;;5051409;28;19917;-75
2022/09/13 03:20:43;;;;;;;;;;;19.10;67.50;;;;;;5036657;28;19936;-75
2022/09/13 03:23:31;;;;;;;;;;;19.00;67.20;;;;;;5027343;28;19924;-75
2022/09/13 03:26:14;;;;;;;;;;;19.20;67.40;;;;;;5036351;28;19916;-74
2022/09/13 03:28:55;;;;;;;;;;;19.10;67.70;;;;;;5046308;28;20048;-74
2022/09/13 03:31:31;;;;;;;;;;;19.20;67.50;;;;;;5049466;28;19917;-74
2022/09/13 03:34:00;;;;;;;;;;;19.10;67.90;;;;;;5049073;28;19917;-74
2022/09/13 03:36:35;;;;;;;;;;;19.10;68.30;;;;;;5044925;28;20002;-74
2022/09/13 03:39:06;;;;;;;;;;;19.00;68.50;;;;;;5045860;28;20332;-73
2022/09/13 03:41:35;;;;;;;;;;;19.00;68.70;;;;;;5050690;28;19952;-75
2022/09/13 03:44:02;;;;;;;;;;;19.00;69.20;;;;;;5043997;28;20384;-74
2022/09/13 03:46:36;;;;;;;;;;;19.00;68.90;;;;;;5052581;28;19913;-74
2022/09/13 03:49:05;;;;;;;;;;;18.90;69.00;;;;;;5046054;28;19963;-75
2022/09/13 03:51:31;;;;;;;;;;;19.00;69.20;;;;;;5049390;28;19960;-73
2022/09/13 03:54:01;;;;;;;;;;;18.90;69.80;;;;;;5044712;28;20006;-74
2022/09/13 03:56:27;;;;;;;;;;;19.00;69.90;;;;;;5048394;28;19912;-74
2022/09/13 03:58:52;;;;;;;;;;;19.00;70.20;;;;;;5066922;22;19935;-85
2022/09/13 04:01:23;;;;;;;;;;;19.00;70.90;;;;;;5049123;28;19921;-84
2022/09/13 04:03:48;;;;;;;;;;;19.00;71.20;;;;;;5052645;28;19920;-84
2022/09/13 04:06:14;;;;;;;;;;;19.00;70.80;;;;;;5051368;28;19919;-85
2022/09/13 04:08:40;;;;;;;;;;;18.90;71.20;;;;;;5049867;28;19916;-84
2022/09/13 04:11:05;;;;;;;;;;;18.90;70.80;;;;;;5042016;28;19921;-84
2022/09/13 04:13:30;;;;;;;;;;;19.00;70.60;;;;;;5051086;28;20383;-85
2022/09/13 04:16:01;;;;;;;;;;;19.00;70.70;;;;;;5049984;28;20355;-85
2022/09/13 04:18:27;;;;;;;;;;;18.90;71.20;;;;;;5054295;28;19913;-83
2022/09/13 04:20:56;;;;;;;;;;;18.80;71.60;;;;;;5052677;28;19912;-84
2022/09/13 04:23:22;;;;;;;;;;;18.80;71.30;;;;;;5050117;28;19917;-85
2022/09/13 04:25:50;;;;;;;;;;;18.90;70.70;;;;;;5052165;28;19938;-84
2022/09/13 04:28:19;;;;;;;;;;;18.90;70.10;;;;;;5047022;28;19917;-83
2022/09/13 04:30:45;;;;;;;;;;;18.90;70.30;;;;;;5043810;28;19917;-84
2022/09/13 04:33:11;;;;;;;;;;;18.80;70.70;;;;;;5052721;28;20419;-83
2022/09/13 04:35:38;;;;;;;;;;;18.80;70.60;;;;;;5050877;28;19997;-83
2022/09/13 04:38:03;;;;;;;;;;;18.80;70.40;;;;;;5052460;28;19917;-83
2022/09/13 04:40:32;;;;;;;;;;;18.80;70.40;;;;;;5053425;28;19912;-86
2022/09/13 04:42:59;;;;;;;;;;;18.80;70.70;;;;;;5053480;28;19951;-84
2022/09/13 04:45:24;;;;;;;;;;;18.90;70.10;;;;;;5075564;28;19925;-83
2022/09/13 04:47:51;;;;;;;;;;;19.00;69.50;;;;;;5053545;28;19974;-84
2022/09/13 04:50:16;;;;;;;;;;;18.90;70.20;;;;;;5056514;28;19913;-84
2022/09/13 04:52:42;;;;;;;;;;;18.90;69.80;;;;;;5053663;28;19912;-84
2022/09/13 04:55:08;;;;;;;;;;;18.80;70.70;;;;;;5048627;28;19913;-87
2022/09/13 04:57:33;;;;;;;;;;;18.80;71.40;;;;;;5052057;28;19924;-85
2022/09/13 04:59:59;;;;;;;;;;;18.70;71.20;;;;;;5050243;28;19912;-86
2022/09/13 05:02:24;;;;;;;;;;;18.70;71.50;;;;;;5049107;28;19917;-84
2022/09/13 05:04:49;;;;;;;;;;;18.80;71.20;;;;;;5039110;28;19921;-85
2022/09/13 05:07:15;;;;;;;;;;;18.70;71.30;;;;;;5048282;28;19913;-85
2022/09/13 05:09:40;;;;;;;;;;;18.70;71.50;;;;;;5051552;28;19916;-85
2022/09/13 05:12:06;;;;;;;;;;;18.60;71.60;;;;;;5050111;28;19917;-85
2022/09/13 05:14:32;;;;;;;;;;;18.70;71.60;;;;;;5051336;28;19919;-85
2022/09/13 05:16:57;;;;;;;;;;;18.70;71.30;;;;;;5050054;28;19913;-85
2022/09/13 05:19:23;;;;;;;;;;;18.60;71.40;;;;;;5055555;28;19909;-85
2022/09/13 05:21:48;;;;;;;;;;;18.60;71.60;;;;;;5047457;28;19912;-84
2022/09/13 05:24:14;;;;;;;;;;;18.60;71.90;;;;;;5049432;28;19992;-86
2022/09/13 05:26:39;;;;;;;;;;;18.60;72.00;;;;;;5048137;28;19919;-85
2022/09/13 05:29:05;;;;;;;;;;;18.60;72.10;;;;;;5050655;28;19917;-84
2022/09/13 05:31:32;;;;;;;;;;;18.60;72.00;;;;;;5049455;28;19974;-83
2022/09/13 05:34:02;;;;;;;;;;;18.60;72.50;;;;;;5051424;28;19924;-84
2022/09/13 05:36:27;;;;;;;;;;;18.70;72.20;;;;;;5047105;28;20291;-84
2022/09/13 05:38:53;;;;;;;;;;;18.70;72.10;;;;;;5049073;28;19917;-85
2022/09/13 05:41:19;;;;;;;;;;;18.70;72.30;;;;;;5049194;28;19912;-88
2022/09/13 05:43:44;;;;;;;;;;;18.70;72.20;;;;;;5045908;28;19913;-87
2022/09/13 05:46:11;;;;;;;;;;;18.70;72.30;;;;;;5053310;28;20031;-85
2022/09/13 05:48:37;;;;;;;;;;;18.80;72.10;;;;;;5054924;28;19921;-85
2022/09/13 05:51:04;;;;;;;;;;;18.80;71.70;;;;;;5054070;28;19913;-85
2022/09/13 05:53:30;;;;;;;;;;;18.80;72.20;;;;;;5058811;28;19913;-85
2022/09/13 05:55:56;;;;;;;;;;;18.80;72.20;;;;;;5058614;28;19916;-85
2022/09/13 05:58:22;;;;;;;;;;;18.90;71.70;;;;;;5052434;28;20315;-84
2022/09/13 06:00:56;;;;;;;;;;;18.90;71.90;;;;;;5050570;28;20097;-85
2022/09/13 06:03:22;;;;;;;;;;;18.80;72.00;;;;;;5055746;28;20008;-85
2022/09/13 06:05:48;;;;;;;;;;;18.80;72.20;;;;;;5056763;28;20087;-86
2022/09/13 06:08:14;;;;;;;;;;;18.80;72.30;;;;;;5056716;28;20009;-85
2022/09/13 06:10:39;;;;;;;;;;;18.80;72.60;;;;;;5051000;28;19921;-85
2022/09/13 06:13:05;;;;;;;;;;;18.90;72.20;;;;;;5057092;28;19994;-85
2022/09/13 06:15:31;;;;;;;;;;;18.90;72.40;;;;;;5055139;28;19955;-85
2022/09/13 06:17:56;;;;;;;;;;;18.90;72.10;;;;;;5060047;28;19909;-84
2022/09/13 06:20:21;;;;;;;;;;;18.90;72.20;;;;;;5050900;28;19941;-84
2022/09/13 06:22:49;;;;;;;;;;;18.90;72.50;;;;;;5054963;28;20070;-91
2022/09/13 06:25:15;;;;;;;;;;;18.90;72.30;;;;;;5052705;28;19917;-87
2022/09/13 06:27:41;;;;;;;;;;;18.90;72.50;;;;;;5044659;28;19924;-87
2022/09/13 06:30:07;;;;;;;;;;;18.90;72.40;;;;;;5044454;28;19913;-87
2022/09/13 06:32:33;;;;;;;;;;;18.90;72.30;;;;;;5048314;28;19943;-87
2022/09/13 06:34:59;;;;;;;;;;;18.90;72.10;;;;;;5053363;28;19913;-86
2022/09/13 06:37:24;;;;;;;;;;;19.00;71.50;;;;;;5045916;28;19920;-86
2022/09/13 06:39:50;;;;;;;;;;;19.00;71.60;;;;;;5051975;28;20307;-86
2022/09/13 06:42:15;;;;;;;;;;;19.00;71.50;;;;;;5050951;28;19967;-85
2022/09/13 06:44:41;;;;;;;;;;;19.00;71.70;;;;;;5052938;28;19917;-85
2022/09/13 06:47:06;;;;;;;;;;;19.10;71.10;;;;;;5056544;28;20387;-85
2022/09/13 06:49:31;;;;;;;;;;;19.00;71.60;;;;;;5055378;28;19971;-84
2022/09/13 06:51:57;;;;;;;;;;;19.00;71.70;;;;;;5044516;28;19912;-87
2022/09/13 06:54:22;;;;;;;;;;;19.10;71.30;;;;;;5051448;28;19919;-85
2022/09/13 06:56:48;;;;;;;;;;;19.10;71.20;;;;;;5051672;28;19946;-85
2022/09/13 06:59:13;;;;;;;;;;;19.20;71.40;;;;;;5046269;28;19917;-86
2022/09/13 07:01:40;;;;;;;;;;;19.20;71.20;;;;;;5051632;28;19978;-87
2022/09/13 07:04:07;;;;;;;;;;;19.30;71.40;;;;;;5052710;28;21454;-86
2022/09/13 07:06:34;;;;;;;;;;;19.30;71.10;;;;;;5049812;28;19913;-84
2022/09/13 07:09:01;;;;;;;;;;;19.30;71.30;;;;;;5053533;28;19982;-85
2022/09/13 07:11:28;;;;;;;;;;;19.30;71.10;;;;;;5062660;28;19932;-84
2022/09/13 07:13:55;;;;;;;;;;;19.30;70.90;;;;;;5070343;28;19962;-85
2022/09/13 07:16:22;;;;;;;;;;;19.30;71.20;;;;;;5057098;28;19970;-85
2022/09/13 07:18:52;;;;;;;;;;;19.40;71.50;;;;;;5055698;28;19916;-84
2022/09/13 07:21:18;;;;;;;;;;;19.40;71.20;;;;;;5051559;28;19943;-84
2022/09/13 07:23:43;;;;;;;;;;;19.50;71.00;;;;;;5062942;28;19971;-84
2022/09/13 07:26:09;;;;;;;;;;;19.50;71.00;;;;;;5058020;28;19915;-85
2022/09/13 07:28:36;;;;;;;;;;;19.50;71.00;;;;;;5055586;28;19913;-85
2022/09/13 07:31:10;;;;;;;;;;;19.60;70.70;;;;;;5050103;28;19913;-85
2022/09/13 07:33:36;;;;;;;;;;;19.80;70.30;;;;;;5052206;28;19960;-89
2022/09/13 07:36:05;;;;;;;;;;;20.00;69.20;;;;;;5035706;28;19917;-89
2022/09/13 07:38:39;;;;;;;;;;;20.10;68.70;;;;;;5053800;28;20364;-88
2022/09/13 07:41:07;;;;;;;;;;;20.20;67.90;;;;;;5056651;28;20019;-89
2022/09/13 07:43:36;;;;;;;;;;;20.30;68.10;;;;;;5052686;28;19913;-89
2022/09/13 07:46:03;;;;;;;;;;;20.30;67.70;;;;;;5055095;28;19999;-89
2022/09/13 07:48:30;;;;;;;;;;;20.30;68.10;;;;;;5053524;28;20391;-89
2022/09/13 07:51:03;;;;;;;;;;;20.30;68.00;;;;;;5051685;28;19936;-90
2022/09/13 07:53:29;;;;;;;;;;;20.40;67.80;;;;;;5052363;28;19908;-89
2022/09/13 07:55:58;;;;;;;;;;;20.50;67.60;;;;;;5053419;28;19932;-89
2022/09/13 07:58:24;;;;;;;;;;;20.60;66.80;;;;;;5056345;28;20016;-89
2022/09/13 08:00:50;;;;;;;;;;;20.70;66.70;;;;;;5053994;28;19931;-89
2022/09/13 08:03:15;;;;;;;;;;;20.80;66.80;;;;;;5054783;28;20433;-89
2022/09/13 08:05:41;;;;;;;;;;;20.80;67.00;;;;;;5054333;28;19920;-89
2022/09/13 08:08:06;;;;;;;;;;;20.80;66.20;;;;;;5052509;28;20058;-88
2022/09/13 08:10:32;;;;;;;;;;;20.80;65.80;;;;;;5053339;28;19962;-89
2022/09/13 08:12:58;;;;;;;;;;;20.80;65.90;;;;;;5052615;28;19995;-87
2022/09/13 08:15:23;;;;;;;;;;;20.70;66.40;;;;;;5052630;28;19963;-88
2022/09/13 08:17:49;;;;;;;;;;;20.70;65.90;;;;;;5052294;28;20339;-88
2022/09/13 08:20:14;;;;;;;;;;;20.60;66.00;;;;;;5052040;28;19919;-88
2022/09/13 08:22:40;;;;;;;;;;;20.60;67.00;;;;;;5052498;28;19913;-90
2022/09/13 08:25:05;;;;;;;;;;;20.60;66.80;;;;;;5052249;28;19948;-88
2022/09/13 08:27:31;;;;;;;;;;;20.70;66.90;;;;;;5053217;28;19909;-89
2022/09/13 08:29:56;;;;;;;;;;;20.80;66.50;;;;;;5052498;28;19916;-89
2022/09/13 08:32:22;;;;;;;;;;;21.00;66.50;;;;;;5046207;28;19913;-89
2022/09/13 08:34:47;;;;;;;;;;;21.10;66.50;;;;;;5052560;28;19912;-89
2022/09/13 08:37:13;;;;;;;;;;;21.10;65.50;;;;;;5047725;28;20016;-89
2022/09/13 08:39:38;;;;;;;;;;;21.00;66.20;;;;;;5057107;28;19905;-88
2022/09/13 08:42:14;;;;;;;;;;;21.00;65.70;;;;;;5065603;28;19917;-89
2022/09/13 08:44:44;;;;;;;;;;;21.00;65.50;;;;;;5036124;28;19912;-89
2022/09/13 08:47:28;;;;;;;;;;;21.00;65.90;;;;;;5076593;28;19901;-88
2022/09/13 08:49:58;;;;;;;;;;;21.00;66.00;;;;;;5078022;28;19998;-88
2022/09/13 08:52:29;;;;;;;;;;;21.00;66.20;;;;;;5060718;28;20398;-90
2022/09/13 08:54:56;;;;;;;;;;;21.10;65.80;;;;;;5052551;28;19909;-89
2022/09/13 08:57:25;;;;;;;;;;;21.10;66.20;;;;;;5053336;28;19913;-88
2022/09/13 09:00:09;;;;;;;;;;;21.10;65.80;;;;;;5052615;28;19962;-89
2022/09/13 09:02:35;;;;;;;;;;;21.20;65.90;;;;;;5051628;28;19928;-89
2022/09/13 09:05:24;;;;;;;;;;;21.30;65.50;;;;;;5052233;28;19909;-90
2022/09/13 09:07:53;;;;;;;;;;;21.30;65.30;;;;;;5051103;28;21294;-90
2022/09/13 09:10:28;;;;;;;;;;;21.40;65.10;;;;;;5035213;28;19951;-89
2022/09/13 09:12:56;;;;;;;;;;;21.40;65.00;;;;;;5051796;28;20194;-89
2022/09/13 09:15:23;;;;;;;;;;;21.50;65.20;;;;;;5051738;28;19916;-89
2022/09/13 09:17:52;;;;;;;;;;;21.50;65.10;;;;;;5052005;28;19982;-89
2022/09/13 09:20:26;;;;;;;;;;;21.60;64.60;;;;;;5052363;28;19913;-89
2022/09/13 09:22:54;;;;;;;;;;;21.70;64.30;;;;;;5051734;28;19916;-89
2022/09/13 09:25:20;;;;;;;;;;;21.70;64.60;;;;;;5052367;28;19909;-89
2022/09/13 09:27:46;;;;;;;;;;;21.70;65.10;;;;;;5052730;28;19913;-89
2022/09/13 09:30:12;;;;;;;;;;;21.80;64.50;;;;;;5054492;28;19913;-89
2022/09/13 09:32:45;;;;;;;;;;;21.80;64.60;;;;;;5055354;28;20427;-89
2022/09/13 09:35:14;;;;;;;;;;;22.00;64.10;;;;;;5069241;28;20004;-88
2022/09/13 09:37:41;;;;;;;;;;;22.00;63.90;;;;;;5067431;28;19909;-89
2022/09/13 09:40:11;;;;;;;;;;;22.10;64.00;;;;;;5051553;28;19917;-89
2022/09/13 09:42:41;;;;;;;;;;;22.10;63.50;;;;;;5051820;28;19909;-89
2022/09/13 09:45:18;;;;;;;;;;;22.20;62.80;;;;;;5031964;28;20287;-89
2022/09/13 09:47:48;;;;;;;;;;;22.30;63.30;;;;;;5033941;28;20383;-89
2022/09/13 09:50:17;;;;;;;;;;;22.40;62.30;;;;;;5041931;28;19913;-90
2022/09/13 09:52:50;;;;;;;;;;;22.30;62.50;;;;;;5052144;28;19913;-90
2022/09/13 09:55:27;;;;;;;;;;;22.50;63.00;;;;;;5051174;28;19966;-90
2022/09/13 09:57:54;;;;;;;;;;;22.50;62.40;;;;;;5072774;22;19932;-77
2022/09/13 10:00:21;;;;;;;;;;;22.60;61.60;;;;;;5046722;28;19948;-78
2022/09/13 10:02:47;;;;;;;;;;;22.70;62.50;;;;;;5050397;28;19912;-77
2022/09/13 10:05:17;;;;;;;;;;;22.90;62.70;;;;;;5049466;28;20439;-77
2022/09/13 10:07:43;;;;;;;;;;;22.90;61.60;;;;;;5048041;28;19959;-77
2022/09/13 10:10:21;;;;;;;;;;;23.00;61.70;;;;;;5049086;28;19913;-77
2022/09/13 10:12:49;;;;;;;;;;;23.20;60.60;;;;;;5052281;28;19922;-78
2022/09/13 10:15:16;;;;;;;;;;;23.20;60.90;;;;;;5051383;28;19909;-78
2022/09/13 10:17:42;;;;;;;;;;;23.20;60.40;;;;;;5049427;28;19912;-77
2022/09/13 10:20:14;;;;;;;;;;;23.10;60.90;;;;;;5048336;28;20015;-78
2022/09/13 10:22:41;;;;;;;;;;;23.30;59.90;;;;;;5050417;28;19913;-80
2022/09/13 10:25:12;;;;;;;;;;;23.40;59.90;;;;;;5049836;28;19913;-80
2022/09/13 10:27:41;;;;;;;;;;;23.30;61.10;;;;;;5060186;28;19917;-79
2022/09/13 10:30:26;;;;;;;;;;;23.60;59.70;;;;;;5050883;28;19909;-81
2022/09/13 10:32:56;;;;;;;;;;;23.60;59.20;;;;;;5055146;28;20433;-79
2022/09/13 10:35:22;;;;;;;;;;;23.70;59.60;;;;;;5047409;28;19920;-76
2022/09/13 10:37:47;;;;;;;;;;;23.70;58.40;;;;;;5049126;28;19963;-76
2022/09/13 10:40:18;;;;;;;;;;;23.60;59.10;;;;;;5039913;28;19908;-78
2022/09/13 10:42:55;;;;;;;;;;;23.50;58.80;;;;;;5050717;28;20367;-77
2022/09/13 10:45:22;;;;;;;;;;;23.50;59.00;;;;;;5047021;28;19935;-76
2022/09/13 10:47:49;;;;;;;;;;;23.60;59.40;;;;;;5051209;28;19912;-77
2022/09/13 10:50:18;;;;;;;;;;;23.60;59.50;;;;;;5049987;28;20403;-77
2022/09/13 10:52:45;;;;;;;;;;;23.70;59.60;;;;;;5050558;28;19967;-77
2022/09/13 10:55:19;;;;;;;;;;;23.80;58.80;;;;;;5048736;28;19913;-77
2022/09/13 10:57:46;;;;;;;;;;;23.70;59.30;;;;;;5050236;28;19920;-77
2022/09/13 11:00:35;;;;;;;;;;;23.50;60.60;;;;;;5044121;28;19913;-76
2022/09/13 11:03:12;;;;;;;;;;;23.60;60.70;;;;;;5012000;28;19913;-76
2022/09/13 11:05:41;;;;;;;;;;;23.70;60.20;;;;;;5047680;28;19917;-77
2022/09/13 11:08:25;;;;;;;;;;;23.70;60.10;;;;;;5050261;28;19963;-75
2022/09/13 11:10:55;;;;;;;;;;;23.80;60.60;;;;;;5054039;28;19913;-77
2022/09/13 11:13:21;;;;;;;;;;;23.80;60.90;;;;;;5053757;28;19909;-77
2022/09/13 11:15:46;;;;;;;;;;;23.80;60.50;;;;;;5051913;28;19966;-77
2022/09/13 11:18:31;;;;;;;;;;;24.00;60.10;;;;;;5053812;28;19909;-77
2022/09/13 11:21:15;;;;;;;;;;;23.90;60.80;;;;;;5059056;28;19913;-77
2022/09/13 11:23:40;;;;;;;;;;;24.00;59.90;;;;;;5050485;28;19921;-77
2022/09/13 11:26:25;;;;;;;;;;;24.00;60.10;;;;;;5053952;28;19983;-77
2022/09/13 11:29:03;;;;;;;;;;;24.00;60.10;;;;;;5039246;28;19936;-78
2022/09/13 11:31:34;;;;;;;;;;;24.00;61.20;;;;;;5051292;28;20319;-78
2022/09/13 11:34:06;;;;;;;;;;;23.90;60.90;;;;;;5053989;28;19963;-78
2022/09/13 11:36:31;;;;;;;;;;;23.90;60.50;;;;;;5054048;28;19915;-77
2022/09/13 11:39:12;;;;;;;;;;;24.10;60.30;;;;;;5053548;28;20320;-77
2022/09/13 11:41:37;;;;;;;;;;;24.20;59.60;;;;;;5052572;28;20348;-77
2022/09/13 11:44:16;;;;;;;;;;;24.10;59.80;;;;;;5054604;28;19913;-78
2022/09/13 11:46:53;;;;;;;;;;;24.20;60.20;;;;;;5046202;28;20274;-77
2022/09/13 11:49:54;;;;;;;;;;;24.30;60.40;;;;;;5050431;28;20003;-76
2022/09/13 11:52:29;;;;;;;;;;;24.50;59.50;;;;;;4989364;28;19922;-77
2022/09/13 11:55:04;;;;;;;;;;;24.70;58.10;;;;;;5038376;28;20011;-77
2022/09/13 11:57:33;;;;;;;;;;;24.50;58.80;;;;;;5051290;28;19965;-77
2022/09/13 12:00:01;;;;;;;;;;;24.50;59.70;;;;;;5048456;28;19952;-77
2022/09/13 12:02:33;;;;;;;;;;;24.50;60.60;;;;;;5051196;28;19913;-77
2022/09/13 12:05:02;;;;;;;;;;;24.50;59.60;;;;;;5048443;28;19932;-77
2022/09/13 12:07:34;;;;;;;;;;;24.20;60.10;;;;;;5050755;28;19913;-77
2022/09/13 12:10:13;;;;;;;;;;;24.30;60.80;;;;;;5047051;28;19962;-78
2022/09/13 12:12:39;;;;;;;;;;;24.30;60.70;;;;;;5049911;28;19990;-77
2022/09/13 12:15:09;;;;;;;;;;;24.30;60.50;;;;;;5051547;28;19924;-77
2022/09/13 12:17:36;;;;;;;;;;;24.30;60.30;;;;;;5046794;28;20008;-77
2022/09/13 12:20:04;;;;;;;;;;;24.30;60.60;;;;;;5043064;28;19921;-78
2022/09/13 12:22:32;;;;;;;;;;;24.30;60.40;;;;;;5045994;28;19921;-77
2022/09/13 12:25:02;;;;;;;;;;;24.30;60.30;;;;;;5048862;28;19948;-77
2022/09/13 12:27:33;;;;;;;;;;;24.20;61.10;;;;;;5049756;28;19920;-78
2022/09/13 12:30:08;;;;;;;;;;;24.30;61.00;;;;;;5044522;28;20382;-78
2022/09/13 12:32:36;;;;;;;;;;;24.20;61.30;;;;;;5054149;28;19912;-78
2022/09/13 12:35:23;;;;;;;;;;;24.40;61.20;;;;;;5049857;28;19916;-78
2022/09/13 12:38:04;;;;;;;;;;;24.60;61.00;;;;;;5044744;28;19964;-77
2022/09/13 12:40:30;;;;;;;;;;;24.60;61.80;;;;;;5050399;28;19923;-78
2022/09/13 12:42:58;;;;;;;;;;;24.50;62.70;;;;;;5048194;28;20217;-77
2022/09/13 12:45:43;;;;;;;;;;;24.50;62.70;;;;;;5047370;28;19920;-77
2022/09/13 12:48:11;;;;;;;;;;;24.60;62.80;;;;;;5044656;28;20015;-77
2022/09/13 12:50:43;;;;;;;;;;;24.60;62.40;;;;;;5046344;28;19923;-77
2022/09/13 12:53:31;;;;;;;;;;;24.80;62.30;;;;;;5046636;28;19916;-77
2022/09/13 12:56:00;;;;;;;;;;;24.90;62.00;;;;;;5042063;28;19967;-78
2022/09/13 12:58:33;;;;;;;;;;;25.00;60.90;;;;;;5049923;28;19917;-79
2022/09/13 13:01:07;;;;;;;;;;;24.90;61.00;;;;;;5049642;28;19923;-77
2022/09/13 13:03:35;;;;;;;;;;;24.90;61.30;;;;;;5051509;28;20321;-78
2022/09/13 13:06:39;;;;;;;;;;;24.70;61.90;;;;;;5049006;28;19928;-77
2022/09/13 13:09:18;;;;;;;;;;;24.60;62.70;;;;;;4975572;28;20561;-77
2022/09/13 13:11:45;;;;;;;;;;;24.50;62.80;;;;;;4981884;28;19914;-77
2022/09/13 13:14:27;;;;;;;;;;;24.60;62.00;;;;;;5021135;28;20316;-77
2022/09/13 13:16:52;;;;;;;;;;;24.60;61.90;;;;;;5047528;28;19916;-77
2022/09/13 13:19:28;;;;;;;;;;;24.60;61.80;;;;;;5033583;28;19928;-77
2022/09/13 13:21:54;;;;;;;;;;;24.70;61.10;;;;;;5048134;28;20373;-77
2022/09/13 13:24:20;;;;;;;;;;;24.90;61.10;;;;;;5043928;28;19927;-77
2022/09/13 13:26:49;;;;;;;;;;;25.00;61.20;;;;;;5048164;28;19913;-77
2022/09/13 13:29:19;;;;;;;;;;;25.10;61.40;;;;;;5036738;28;19952;-77
2022/09/13 13:31:45;;;;;;;;;;;25.30;60.40;;;;;;5044180;28;19934;-77
2022/09/13 13:34:13;;;;;;;;;;;25.50;59.50;;;;;;5048033;28;19920;-77
2022/09/13 13:36:39;;;;;;;;;;;25.20;59.90;;;;;;5047972;28;19913;-76
2022/09/13 13:39:25;;;;;;;;;;;25.00;61.10;;;;;;5044626;28;19924;-76
2022/09/13 13:41:59;;;;;;;;;;;25.10;61.40;;;;;;5021262;28;20003;-76
2022/09/13 13:44:24;;;;;;;;;;;25.00;62.00;;;;;;5061742;28;19920;-77
2022/09/13 13:47:02;;;;;;;;;;;25.00;62.30;;;;;;5049775;28;19913;-78
2022/09/13 13:49:30;;;;;;;;;;;24.90;62.50;;;;;;5054696;28;19917;-77
2022/09/13 13:52:05;;;;;;;;;;;25.10;60.90;;;;;;5046889;28;19927;-78
2022/09/13 13:54:52;;;;;;;;;;;25.10;60.10;;;;;;5053483;28;19982;-78
2022/09/13 13:57:39;;;;;;;;;;;25.00;61.10;;;;;;5048310;28;20004;-77
2022/09/13 14:00:14;;;;;;;;;;;25.10;60.70;;;;;;5037528;28;19979;-78
2022/09/13 14:02:40;;;;;;;;;;;25.10;61.40;;;;;;5039927;28;19924;-76
2022/09/13 14:05:16;;;;;;;;;;;25.10;61.50;;;;;;5047306;28;19916;-78
2022/09/13 14:07:47;;;;;;;;;;;25.00;62.50;;;;;;5040161;28;20285;-77
2022/09/13 14:10:17;;;;;;;;;;;25.00;62.00;;;;;;5041365;28;19955;-76
2022/09/13 14:13:02;;;;;;;;;;;25.00;62.00;;;;;;5046706;28;19977;-77
2022/09/13 14:15:38;;;;;;;;;;;25.00;62.00;;;;;;5049513;28;19913;-76
2022/09/13 14:18:12;;;;;;;;;;;25.00;62.40;;;;;;5041546;28;19916;-78
2022/09/13 14:20:55;;;;;;;;;;;25.10;62.20;;;;;;5046001;28;19913;-77
2022/09/13 14:23:20;;;;;;;;;;;24.90;63.00;;;;;;5045924;28;19917;-77
2022/09/13 14:25:52;;;;;;;;;;;24.90;63.40;;;;;;5050125;28;19916;-77
2022/09/13 14:28:20;;;;;;;;;;;25.00;63.30;;;;;;5046380;28;19980;-76
2022/09/13 14:30:45;;;;;;;;;;;25.00;62.80;;;;;;5040120;28;20370;-81
2022/09/13 14:33:23;;;;;;;;;;;25.10;62.20;;;;;;5046051;28;19944;-76